sensor_id;sensor_type;location;lat;lon;timestamp;P1;durP1;ratioP1;P2;durP2;ratioP2
10452;SDS011;5274;51.992;8.518;2024-03-06T00:00:40;35.27;;;31.93;;
10452;SDS011;5274;51.992;8.518;2024-03-06T00:03:06;34.90;;;31.70;;
10452;SDS011;5274;51.992;8.518;2024-03-06T00:05:31;34.65;;;31.55;;
10452;SDS011;5274;51.992;8.518;2024-03-06T00:07:57;34.63;;;31.63;;
10452;SDS011;5274;51.992;8.518;2024-03-06T00:10:22;33.58;;;30.52;;
10452;SDS011;5274;51.992;8.518;2024-03-06T00:12:48;34.53;;;31.53;;
10452;SDS011;5274;51.992;8.518;2024-03-06T00:15:14;33.25;;;30.35;;
10452;SDS011;5274;51.992;8.518;2024-03-06T00:17:39;33.07;;;30.10;;
10452;SDS011;5274;51.992;8.518;2024-03-06T00:20:05;33.05;;;30.23;;
10452;SDS011;5274;51.992;8.518;2024-03-06T00:22:31;32.33;;;29.63;;
10452;SDS011;5274;51.992;8.518;2024-03-06T00:24:56;32.70;;;30.00;;
10452;SDS011;5274;51.992;8.518;2024-03-06T00:27:22;32.67;;;29.73;;
10452;SDS011;5274;51.992;8.518;2024-03-06T00:29:47;32.03;;;29.23;;
10452;SDS011;5274;51.992;8.518;2024-03-06T00:32:13;32.60;;;29.70;;
10452;SDS011;5274;51.992;8.518;2024-03-06T00:34:39;32.67;;;29.73;;
10452;SDS011;5274;51.992;8.518;2024-03-06T00:37:05;33.92;;;30.73;;
10452;SDS011;5274;51.992;8.518;2024-03-06T00:39:31;34.50;;;31.40;;
10452;SDS011;5274;51.992;8.518;2024-03-06T00:41:56;33.57;;;30.57;;
10452;SDS011;5274;51.992;8.518;2024-03-06T00:44:21;32.95;;;30.05;;
10452;SDS011;5274;51.992;8.518;2024-03-06T00:46:47;33.87;;;30.77;;
10452;SDS011;5274;51.992;8.518;2024-03-06T00:49:12;33.83;;;30.93;;
10452;SDS011;5274;51.992;8.518;2024-03-06T00:51:38;32.83;;;30.00;;
10452;SDS011;5274;51.992;8.518;2024-03-06T00:54:03;33.50;;;30.60;;
10452;SDS011;5274;51.992;8.518;2024-03-06T00:56:29;32.13;;;29.15;;
10452;SDS011;5274;51.992;8.518;2024-03-06T00:58:56;33.72;;;30.63;;
10452;SDS011;5274;51.992;8.518;2024-03-06T01:01:21;34.08;;;31.08;;
10452;SDS011;5274;51.992;8.518;2024-03-06T01:03:47;33.17;;;30.20;;
10452;SDS011;5274;51.992;8.518;2024-03-06T01:06:12;33.70;;;30.73;;
10452;SDS011;5274;51.992;8.518;2024-03-06T01:08:38;33.10;;;30.25;;
10452;SDS011;5274;51.992;8.518;2024-03-06T01:11:03;33.57;;;30.53;;
10452;SDS011;5274;51.992;8.518;2024-03-06T01:13:29;33.10;;;30.13;;
10452;SDS011;5274;51.992;8.518;2024-03-06T01:15:55;32.80;;;29.95;;
10452;SDS011;5274;51.992;8.518;2024-03-06T01:18:20;33.50;;;30.53;;
10452;SDS011;5274;51.992;8.518;2024-03-06T01:20:46;32.45;;;29.65;;
10452;SDS011;5274;51.992;8.518;2024-03-06T01:23:11;32.70;;;29.90;;
10452;SDS011;5274;51.992;8.518;2024-03-06T01:25:37;31.50;;;28.80;;
10452;SDS011;5274;51.992;8.518;2024-03-06T01:28:02;30.48;;;27.98;;
10452;SDS011;5274;51.992;8.518;2024-03-06T01:30:28;31.43;;;28.67;;
10452;SDS011;5274;51.992;8.518;2024-03-06T01:32:54;31.38;;;28.77;;
10452;SDS011;5274;51.992;8.518;2024-03-06T01:35:19;31.27;;;28.47;;
10452;SDS011;5274;51.992;8.518;2024-03-06T01:37:45;30.95;;;28.25;;
10452;SDS011;5274;51.992;8.518;2024-03-06T01:40:10;30.60;;;28.00;;
10452;SDS011;5274;51.992;8.518;2024-03-06T01:42:37;32.22;;;29.17;;
10452;SDS011;5274;51.992;8.518;2024-03-06T01:45:03;31.90;;;29.00;;
10452;SDS011;5274;51.992;8.518;2024-03-06T01:47:28;30.35;;;27.75;;
10452;SDS011;5274;51.992;8.518;2024-03-06T01:49:54;32.47;;;29.77;;
10452;SDS011;5274;51.992;8.518;2024-03-06T01:52:20;33.00;;;30.10;;
10452;SDS011;5274;51.992;8.518;2024-03-06T01:54:47;32.95;;;29.95;;
10452;SDS011;5274;51.992;8.518;2024-03-06T01:57:14;32.78;;;29.88;;
10452;SDS011;5274;51.992;8.518;2024-03-06T01:59:41;33.25;;;30.38;;
10452;SDS011;5274;51.992;8.518;2024-03-06T02:02:07;32.63;;;29.73;;
10452;SDS011;5274;51.992;8.518;2024-03-06T02:04:36;30.52;;;28.02;;
10452;SDS011;5274;51.992;8.518;2024-03-06T02:07:02;29.90;;;27.50;;
10452;SDS011;5274;51.992;8.518;2024-03-06T02:09:29;29.80;;;27.42;;
10452;SDS011;5274;51.992;8.518;2024-03-06T02:11:54;30.42;;;27.92;;
10452;SDS011;5274;51.992;8.518;2024-03-06T02:14:20;30.40;;;27.90;;
10452;SDS011;5274;51.992;8.518;2024-03-06T02:16:45;31.30;;;28.52;;
10452;SDS011;5274;51.992;8.518;2024-03-06T02:19:11;30.83;;;28.33;;
10452;SDS011;5274;51.992;8.518;2024-03-06T02:21:36;31.90;;;29.10;;
10452;SDS011;5274;51.992;8.518;2024-03-06T02:24:02;32.20;;;29.33;;
10452;SDS011;5274;51.992;8.518;2024-03-06T02:26:28;31.42;;;28.83;;
10452;SDS011;5274;51.992;8.518;2024-03-06T02:28:54;32.07;;;29.23;;
10452;SDS011;5274;51.992;8.518;2024-03-06T02:31:20;32.75;;;29.88;;
10452;SDS011;5274;51.992;8.518;2024-03-06T02:33:47;32.42;;;29.60;;
10452;SDS011;5274;51.992;8.518;2024-03-06T02:36:16;31.88;;;29.08;;
10452;SDS011;5274;51.992;8.518;2024-03-06T02:38:42;32.45;;;29.58;;
10452;SDS011;5274;51.992;8.518;2024-03-06T02:41:08;32.78;;;29.67;;
10452;SDS011;5274;51.992;8.518;2024-03-06T02:43:34;31.42;;;28.73;;
10452;SDS011;5274;51.992;8.518;2024-03-06T02:46:00;31.50;;;28.75;;
10452;SDS011;5274;51.992;8.518;2024-03-06T02:48:26;31.37;;;28.73;;
10452;SDS011;5274;51.992;8.518;2024-03-06T02:50:51;31.33;;;28.73;;
10452;SDS011;5274;51.992;8.518;2024-03-06T02:53:17;31.30;;;28.70;;
10452;SDS011;5274;51.992;8.518;2024-03-06T02:55:42;30.87;;;28.37;;
10452;SDS011;5274;51.992;8.518;2024-03-06T02:58:08;31.20;;;28.53;;
10452;SDS011;5274;51.992;8.518;2024-03-06T03:00:33;31.00;;;28.42;;
10452;SDS011;5274;51.992;8.518;2024-03-06T03:02:59;32.37;;;29.57;;
10452;SDS011;5274;51.992;8.518;2024-03-06T03:05:24;31.70;;;29.10;;
10452;SDS011;5274;51.992;8.518;2024-03-06T03:07:50;32.10;;;29.40;;
10452;SDS011;5274;51.992;8.518;2024-03-06T03:10:16;31.50;;;28.80;;
10452;SDS011;5274;51.992;8.518;2024-03-06T03:12:42;32.33;;;29.53;;
10452;SDS011;5274;51.992;8.518;2024-03-06T03:15:08;31.88;;;29.08;;
10452;SDS011;5274;51.992;8.518;2024-03-06T03:17:34;32.28;;;29.63;;
10452;SDS011;5274;51.992;8.518;2024-03-06T03:20:00;32.22;;;29.48;;
10452;SDS011;5274;51.992;8.518;2024-03-06T03:22:35;32.03;;;29.27;;
10452;SDS011;5274;51.992;8.518;2024-03-06T03:25:06;30.95;;;28.45;;
10452;SDS011;5274;51.992;8.518;2024-03-06T03:27:33;30.65;;;27.98;;
10452;SDS011;5274;51.992;8.518;2024-03-06T03:29:59;31.67;;;28.87;;
10452;SDS011;5274;51.992;8.518;2024-03-06T03:32:24;31.15;;;28.55;;
10452;SDS011;5274;51.992;8.518;2024-03-06T03:34:50;32.20;;;29.40;;
10452;SDS011;5274;51.992;8.518;2024-03-06T03:37:15;31.93;;;29.17;;
10452;SDS011;5274;51.992;8.518;2024-03-06T03:39:43;32.15;;;29.35;;
10452;SDS011;5274;51.992;8.518;2024-03-06T03:42:09;32.58;;;29.80;;
10452;SDS011;5274;51.992;8.518;2024-03-06T03:44:34;31.67;;;29.07;;
10452;SDS011;5274;51.992;8.518;2024-03-06T03:46:59;33.17;;;30.17;;
10452;SDS011;5274;51.992;8.518;2024-03-06T03:49:25;33.17;;;30.38;;
10452;SDS011;5274;51.992;8.518;2024-03-06T03:51:51;32.50;;;29.80;;
10452;SDS011;5274;51.992;8.518;2024-03-06T03:54:16;32.30;;;29.50;;
10452;SDS011;5274;51.992;8.518;2024-03-06T03:56:42;32.60;;;29.80;;
10452;SDS011;5274;51.992;8.518;2024-03-06T03:59:08;33.47;;;30.48;;
10452;SDS011;5274;51.992;8.518;2024-03-06T04:01:33;32.80;;;30.00;;
10452;SDS011;5274;51.992;8.518;2024-03-06T04:03:59;33.78;;;30.70;;
10452;SDS011;5274;51.992;8.518;2024-03-06T04:06:24;33.37;;;30.47;;
10452;SDS011;5274;51.992;8.518;2024-03-06T04:08:50;33.83;;;30.83;;
10452;SDS011;5274;51.992;8.518;2024-03-06T04:11:16;33.65;;;30.65;;
10452;SDS011;5274;51.992;8.518;2024-03-06T04:13:41;33.97;;;31.05;;
10452;SDS011;5274;51.992;8.518;2024-03-06T04:16:07;33.13;;;30.13;;
10452;SDS011;5274;51.992;8.518;2024-03-06T04:18:33;33.45;;;30.45;;
10452;SDS011;5274;51.992;8.518;2024-03-06T04:21:01;34.67;;;31.58;;
10452;SDS011;5274;51.992;8.518;2024-03-06T04:23:29;35.38;;;32.08;;
10452;SDS011;5274;51.992;8.518;2024-03-06T04:25:54;35.33;;;32.17;;
10452;SDS011;5274;51.992;8.518;2024-03-06T04:28:20;36.13;;;32.85;;
10452;SDS011;5274;51.992;8.518;2024-03-06T04:30:46;35.67;;;32.37;;
10452;SDS011;5274;51.992;8.518;2024-03-06T04:33:12;36.70;;;33.30;;
10452;SDS011;5274;51.992;8.518;2024-03-06T04:35:39;36.28;;;32.88;;
10452;SDS011;5274;51.992;8.518;2024-03-06T04:38:05;35.10;;;31.90;;
10452;SDS011;5274;51.992;8.518;2024-03-06T04:40:31;36.33;;;32.95;;
10452;SDS011;5274;51.992;8.518;2024-03-06T04:42:57;34.30;;;31.25;;
10452;SDS011;5274;51.992;8.518;2024-03-06T04:45:22;35.63;;;32.43;;
10452;SDS011;5274;51.992;8.518;2024-03-06T04:47:48;35.97;;;32.67;;
10452;SDS011;5274;51.992;8.518;2024-03-06T04:50:14;37.10;;;33.60;;
10452;SDS011;5274;51.992;8.518;2024-03-06T04:52:40;37.67;;;33.97;;
10452;SDS011;5274;51.992;8.518;2024-03-06T04:55:06;36.23;;;32.93;;
10452;SDS011;5274;51.992;8.518;2024-03-06T04:57:34;37.45;;;33.83;;
10452;SDS011;5274;51.992;8.518;2024-03-06T04:59:59;37.53;;;33.83;;
10452;SDS011;5274;51.992;8.518;2024-03-06T05:02:27;37.60;;;33.97;;
10452;SDS011;5274;51.992;8.518;2024-03-06T05:04:53;36.57;;;33.17;;
10452;SDS011;5274;51.992;8.518;2024-03-06T05:07:18;37.90;;;34.40;;
10452;SDS011;5274;51.992;8.518;2024-03-06T05:09:44;38.57;;;34.97;;
10452;SDS011;5274;51.992;8.518;2024-03-06T05:12:09;38.53;;;34.83;;
10452;SDS011;5274;51.992;8.518;2024-03-06T05:14:35;37.53;;;33.92;;
10452;SDS011;5274;51.992;8.518;2024-03-06T05:17:01;38.67;;;35.07;;
10452;SDS011;5274;51.992;8.518;2024-03-06T05:19:26;38.42;;;34.83;;
10452;SDS011;5274;51.992;8.518;2024-03-06T05:21:57;38.08;;;34.38;;
10452;SDS011;5274;51.992;8.518;2024-03-06T05:24:25;38.60;;;34.97;;
10452;SDS011;5274;51.992;8.518;2024-03-06T05:26:51;36.80;;;33.30;;
10452;SDS011;5274;51.992;8.518;2024-03-06T05:29:17;37.47;;;33.97;;
10452;SDS011;5274;51.992;8.518;2024-03-06T05:31:42;36.53;;;33.10;;
10452;SDS011;5274;51.992;8.518;2024-03-06T05:34:08;37.63;;;34.13;;
10452;SDS011;5274;51.992;8.518;2024-03-06T05:36:33;37.80;;;34.30;;
10452;SDS011;5274;51.992;8.518;2024-03-06T05:38:59;37.30;;;33.78;;
10452;SDS011;5274;51.992;8.518;2024-03-06T05:41:24;36.63;;;33.23;;
10452;SDS011;5274;51.992;8.518;2024-03-06T05:43:50;37.53;;;33.73;;
10452;SDS011;5274;51.992;8.518;2024-03-06T05:46:15;39.13;;;34.92;;
10452;SDS011;5274;51.992;8.518;2024-03-06T05:48:41;38.43;;;34.63;;
10452;SDS011;5274;51.992;8.518;2024-03-06T05:51:07;38.55;;;34.72;;
10452;SDS011;5274;51.992;8.518;2024-03-06T05:53:38;38.87;;;35.17;;
10452;SDS011;5274;51.992;8.518;2024-03-06T05:56:07;39.22;;;35.33;;
10452;SDS011;5274;51.992;8.518;2024-03-06T05:58:33;38.57;;;34.67;;
10452;SDS011;5274;51.992;8.518;2024-03-06T06:00:59;38.33;;;34.63;;
10452;SDS011;5274;51.992;8.518;2024-03-06T06:03:26;38.15;;;34.47;;
10452;SDS011;5274;51.992;8.518;2024-03-06T06:05:53;38.03;;;34.33;;
10452;SDS011;5274;51.992;8.518;2024-03-06T06:08:19;59.40;;;36.92;;
10452;SDS011;5274;51.992;8.518;2024-03-06T06:10:44;42.25;;;34.95;;
10452;SDS011;5274;51.992;8.518;2024-03-06T06:13:10;39.50;;;35.40;;
10452;SDS011;5274;51.992;8.518;2024-03-06T06:15:35;39.33;;;35.40;;
10452;SDS011;5274;51.992;8.518;2024-03-06T06:18:01;41.83;;;36.97;;
10452;SDS011;5274;51.992;8.518;2024-03-06T06:20:26;42.20;;;36.40;;
10452;SDS011;5274;51.992;8.518;2024-03-06T06:22:52;50.78;;;36.33;;
10452;SDS011;5274;51.992;8.518;2024-03-06T06:25:18;39.70;;;35.60;;
10452;SDS011;5274;51.992;8.518;2024-03-06T06:27:43;42.70;;;35.80;;
10452;SDS011;5274;51.992;8.518;2024-03-06T06:30:09;40.20;;;35.28;;
10452;SDS011;5274;51.992;8.518;2024-03-06T06:32:36;48.00;;;36.28;;
10452;SDS011;5274;51.992;8.518;2024-03-06T06:35:02;43.42;;;37.33;;
10452;SDS011;5274;51.992;8.518;2024-03-06T06:37:28;50.45;;;36.88;;
10452;SDS011;5274;51.992;8.518;2024-03-06T06:39:54;39.95;;;35.85;;
10452;SDS011;5274;51.992;8.518;2024-03-06T06:42:19;38.83;;;34.73;;
10452;SDS011;5274;51.992;8.518;2024-03-06T06:44:45;39.38;;;35.10;;
10452;SDS011;5274;51.992;8.518;2024-03-06T06:47:11;40.43;;;36.27;;
10452;SDS011;5274;51.992;8.518;2024-03-06T06:49:36;39.88;;;35.95;;
10452;SDS011;5274;51.992;8.518;2024-03-06T06:52:02;39.33;;;35.40;;
10452;SDS011;5274;51.992;8.518;2024-03-06T06:54:27;38.53;;;34.77;;
10452;SDS011;5274;51.992;8.518;2024-03-06T06:56:53;38.13;;;34.03;;
10452;SDS011;5274;51.992;8.518;2024-03-06T06:59:19;38.63;;;34.73;;
10452;SDS011;5274;51.992;8.518;2024-03-06T07:01:45;40.33;;;35.00;;
10452;SDS011;5274;51.992;8.518;2024-03-06T07:04:11;40.42;;;35.72;;
10452;SDS011;5274;51.992;8.518;2024-03-06T07:06:36;39.22;;;35.00;;
10452;SDS011;5274;51.992;8.518;2024-03-06T07:09:02;39.57;;;35.50;;
10452;SDS011;5274;51.992;8.518;2024-03-06T07:11:29;37.95;;;34.08;;
10452;SDS011;5274;51.992;8.518;2024-03-06T07:13:55;39.57;;;35.33;;
10452;SDS011;5274;51.992;8.518;2024-03-06T07:16:21;40.75;;;36.45;;
10452;SDS011;5274;51.992;8.518;2024-03-06T07:18:47;38.73;;;34.73;;
10452;SDS011;5274;51.992;8.518;2024-03-06T07:21:12;40.53;;;36.38;;
10452;SDS011;5274;51.992;8.518;2024-03-06T07:23:38;38.28;;;34.45;;
10452;SDS011;5274;51.992;8.518;2024-03-06T07:26:03;38.17;;;34.17;;
10452;SDS011;5274;51.992;8.518;2024-03-06T07:28:30;40.20;;;36.08;;
10452;SDS011;5274;51.992;8.518;2024-03-06T07:30:55;39.90;;;35.70;;
10452;SDS011;5274;51.992;8.518;2024-03-06T07:33:21;40.50;;;36.15;;
10452;SDS011;5274;51.992;8.518;2024-03-06T07:35:46;43.30;;;36.93;;
10452;SDS011;5274;51.992;8.518;2024-03-06T07:38:11;42.00;;;37.53;;
10452;SDS011;5274;51.992;8.518;2024-03-06T07:40:37;42.70;;;38.10;;
10452;SDS011;5274;51.992;8.518;2024-03-06T07:43:03;40.63;;;36.40;;
10452;SDS011;5274;51.992;8.518;2024-03-06T07:45:30;41.22;;;36.75;;
10452;SDS011;5274;51.992;8.518;2024-03-06T07:47:55;42.73;;;37.17;;
10452;SDS011;5274;51.992;8.518;2024-03-06T07:50:20;42.13;;;37.53;;
10452;SDS011;5274;51.992;8.518;2024-03-06T07:52:46;41.63;;;36.90;;
10452;SDS011;5274;51.992;8.518;2024-03-06T07:55:12;42.50;;;37.90;;
10452;SDS011;5274;51.992;8.518;2024-03-06T07:57:38;41.90;;;37.33;;
10452;SDS011;5274;51.992;8.518;2024-03-06T08:00:04;41.58;;;37.13;;
10452;SDS011;5274;51.992;8.518;2024-03-06T08:02:39;41.78;;;37.35;;
10452;SDS011;5274;51.992;8.518;2024-03-06T08:05:07;40.53;;;36.13;;
10452;SDS011;5274;51.992;8.518;2024-03-06T08:07:37;42.42;;;37.78;;
10452;SDS011;5274;51.992;8.518;2024-03-06T08:10:06;40.58;;;36.10;;
10452;SDS011;5274;51.992;8.518;2024-03-06T08:12:33;39.05;;;34.92;;
10452;SDS011;5274;51.992;8.518;2024-03-06T08:14:59;39.92;;;35.72;;
10452;SDS011;5274;51.992;8.518;2024-03-06T08:17:26;39.92;;;35.83;;
10452;SDS011;5274;51.992;8.518;2024-03-06T08:19:52;41.20;;;36.80;;
10452;SDS011;5274;51.992;8.518;2024-03-06T08:22:17;39.30;;;35.20;;
10452;SDS011;5274;51.992;8.518;2024-03-06T08:24:43;39.67;;;35.63;;
10452;SDS011;5274;51.992;8.518;2024-03-06T08:27:08;38.57;;;34.57;;
10452;SDS011;5274;51.992;8.518;2024-03-06T08:29:33;39.17;;;35.07;;
10452;SDS011;5274;51.992;8.518;2024-03-06T08:31:59;38.90;;;34.80;;
10452;SDS011;5274;51.992;8.518;2024-03-06T08:34:26;39.58;;;35.38;;
10452;SDS011;5274;51.992;8.518;2024-03-06T08:36:51;39.13;;;35.13;;
10452;SDS011;5274;51.992;8.518;2024-03-06T08:39:18;38.45;;;34.45;;
10452;SDS011;5274;51.992;8.518;2024-03-06T08:41:43;37.47;;;33.70;;
10452;SDS011;5274;51.992;8.518;2024-03-06T08:44:09;38.78;;;34.63;;
10452;SDS011;5274;51.992;8.518;2024-03-06T08:46:34;37.40;;;33.47;;
10452;SDS011;5274;51.992;8.518;2024-03-06T08:49:00;37.87;;;33.93;;
10452;SDS011;5274;51.992;8.518;2024-03-06T08:51:26;39.53;;;35.42;;
10452;SDS011;5274;51.992;8.518;2024-03-06T08:53:52;39.65;;;34.58;;
10452;SDS011;5274;51.992;8.518;2024-03-06T08:56:17;39.00;;;34.80;;
10452;SDS011;5274;51.992;8.518;2024-03-06T08:58:43;37.90;;;33.83;;
10452;SDS011;5274;51.992;8.518;2024-03-06T09:01:09;36.63;;;32.83;;
10452;SDS011;5274;51.992;8.518;2024-03-06T09:03:34;39.80;;;35.45;;
10452;SDS011;5274;51.992;8.518;2024-03-06T09:06:00;39.77;;;35.67;;
10452;SDS011;5274;51.992;8.518;2024-03-06T09:08:27;39.07;;;34.97;;
10452;SDS011;5274;51.992;8.518;2024-03-06T09:10:53;39.75;;;35.63;;
10452;SDS011;5274;51.992;8.518;2024-03-06T09:13:19;40.85;;;36.53;;
10452;SDS011;5274;51.992;8.518;2024-03-06T09:15:44;39.57;;;35.43;;
10452;SDS011;5274;51.992;8.518;2024-03-06T09:18:10;39.00;;;34.90;;
10452;SDS011;5274;51.992;8.518;2024-03-06T09:20:35;39.92;;;35.15;;
10452;SDS011;5274;51.992;8.518;2024-03-06T09:23:01;40.60;;;36.30;;
10452;SDS011;5274;51.992;8.518;2024-03-06T09:25:27;41.33;;;36.97;;
10452;SDS011;5274;51.992;8.518;2024-03-06T09:27:53;39.42;;;35.20;;
10452;SDS011;5274;51.992;8.518;2024-03-06T09:30:19;37.53;;;33.63;;
10452;SDS011;5274;51.992;8.518;2024-03-06T09:32:44;35.72;;;31.92;;
10452;SDS011;5274;51.992;8.518;2024-03-06T09:35:10;38.93;;;34.93;;
10452;SDS011;5274;51.992;8.518;2024-03-06T09:37:35;38.70;;;34.80;;
10452;SDS011;5274;51.992;8.518;2024-03-06T09:40:01;39.72;;;35.60;;
10452;SDS011;5274;51.992;8.518;2024-03-06T09:42:28;39.80;;;35.70;;
10452;SDS011;5274;51.992;8.518;2024-03-06T09:44:53;38.20;;;34.08;;
10452;SDS011;5274;51.992;8.518;2024-03-06T09:47:21;39.00;;;35.00;;
10452;SDS011;5274;51.992;8.518;2024-03-06T09:49:51;38.90;;;34.90;;
10452;SDS011;5274;51.992;8.518;2024-03-06T09:52:18;39.25;;;35.05;;
10452;SDS011;5274;51.992;8.518;2024-03-06T09:54:44;37.93;;;33.90;;
10452;SDS011;5274;51.992;8.518;2024-03-06T09:57:09;36.67;;;32.97;;
10452;SDS011;5274;51.992;8.518;2024-03-06T09:59:36;36.97;;;33.08;;
10452;SDS011;5274;51.992;8.518;2024-03-06T10:02:09;35.95;;;32.17;;
10452;SDS011;5274;51.992;8.518;2024-03-06T10:04:44;36.70;;;32.88;;
10452;SDS011;5274;51.992;8.518;2024-03-06T10:07:09;36.20;;;32.60;;
10452;SDS011;5274;51.992;8.518;2024-03-06T10:09:35;36.30;;;32.03;;
10452;SDS011;5274;51.992;8.518;2024-03-06T10:12:01;35.50;;;31.90;;
10452;SDS011;5274;51.992;8.518;2024-03-06T10:14:26;37.57;;;33.27;;
10452;SDS011;5274;51.992;8.518;2024-03-06T10:16:54;37.23;;;33.23;;
10452;SDS011;5274;51.992;8.518;2024-03-06T10:19:26;45.60;;;38.37;;
10452;SDS011;5274;51.992;8.518;2024-03-06T10:21:53;46.05;;;39.00;;
10452;SDS011;5274;51.992;8.518;2024-03-06T10:24:20;45.58;;;38.15;;
10452;SDS011;5274;51.992;8.518;2024-03-06T10:26:48;47.10;;;39.05;;
10452;SDS011;5274;51.992;8.518;2024-03-06T10:29:17;46.42;;;37.92;;
10452;SDS011;5274;51.992;8.518;2024-03-06T10:31:47;46.97;;;40.40;;
10452;SDS011;5274;51.992;8.518;2024-03-06T10:34:23;48.28;;;39.58;;
10452;SDS011;5274;51.992;8.518;2024-03-06T10:36:57;49.47;;;39.70;;
10452;SDS011;5274;51.992;8.518;2024-03-06T10:39:24;44.30;;;38.17;;
10452;SDS011;5274;51.992;8.518;2024-03-06T10:41:54;48.58;;;38.50;;
10452;SDS011;5274;51.992;8.518;2024-03-06T10:44:24;50.20;;;39.08;;
10452;SDS011;5274;51.992;8.518;2024-03-06T10:47:00;50.80;;;40.28;;
10452;SDS011;5274;51.992;8.518;2024-03-06T10:49:27;51.17;;;41.30;;
10452;SDS011;5274;51.992;8.518;2024-03-06T10:51:57;52.17;;;41.40;;
10452;SDS011;5274;51.992;8.518;2024-03-06T10:54:27;55.13;;;43.63;;
10452;SDS011;5274;51.992;8.518;2024-03-06T10:56:57;56.30;;;43.50;;
10452;SDS011;5274;51.992;8.518;2024-03-06T10:59:25;53.30;;;41.43;;
10452;SDS011;5274;51.992;8.518;2024-03-06T11:01:52;56.85;;;43.58;;
10452;SDS011;5274;51.992;8.518;2024-03-06T11:04:25;55.50;;;42.78;;
10452;SDS011;5274;51.992;8.518;2024-03-06T11:06:53;54.47;;;41.97;;
10452;SDS011;5274;51.992;8.518;2024-03-06T11:09:22;50.35;;;40.67;;
10452;SDS011;5274;51.992;8.518;2024-03-06T11:11:49;60.93;;;42.57;;
10452;SDS011;5274;51.992;8.518;2024-03-06T11:14:16;56.10;;;43.20;;
10452;SDS011;5274;51.992;8.518;2024-03-06T11:28:24;58.67;;;43.72;;
10452;SDS011;5274;51.992;8.518;2024-03-06T11:33:19;54.57;;;42.00;;
10452;SDS011;5274;51.992;8.518;2024-03-06T11:41:26;58.05;;;42.72;;
10452;SDS011;5274;51.992;8.518;2024-03-06T11:43:53;53.53;;;42.90;;
10452;SDS011;5274;51.992;8.518;2024-03-06T11:46:20;53.95;;;41.95;;
10452;SDS011;5274;51.992;8.518;2024-03-06T11:49:07;54.67;;;43.53;;
10452;SDS011;5274;51.992;8.518;2024-03-06T11:51:45;60.92;;;45.10;;
10452;SDS011;5274;51.992;8.518;2024-03-06T11:54:14;61.10;;;44.97;;
10452;SDS011;5274;51.992;8.518;2024-03-06T11:56:40;60.45;;;45.85;;
10452;SDS011;5274;51.992;8.518;2024-03-06T11:59:06;64.90;;;46.83;;
10452;SDS011;5274;51.992;8.518;2024-03-06T12:01:32;62.58;;;46.78;;
10452;SDS011;5274;51.992;8.518;2024-03-06T12:03:58;62.20;;;45.85;;
10452;SDS011;5274;51.992;8.518;2024-03-06T12:06:26;66.13;;;46.10;;
10452;SDS011;5274;51.992;8.518;2024-03-06T12:08:53;64.47;;;45.67;;
10452;SDS011;5274;51.992;8.518;2024-03-06T12:11:19;59.17;;;45.20;;
10452;SDS011;5274;51.992;8.518;2024-03-06T12:13:45;65.30;;;45.53;;
10452;SDS011;5274;51.992;8.518;2024-03-06T12:16:13;62.05;;;44.78;;
10452;SDS011;5274;51.992;8.518;2024-03-06T12:18:39;58.20;;;44.38;;
10452;SDS011;5274;51.992;8.518;2024-03-06T12:21:04;57.97;;;43.67;;
10452;SDS011;5274;51.992;8.518;2024-03-06T12:23:30;58.67;;;44.20;;
10452;SDS011;5274;51.992;8.518;2024-03-06T12:26:09;60.40;;;44.70;;
10452;SDS011;5274;51.992;8.518;2024-03-06T12:28:36;55.45;;;42.95;;
10452;SDS011;5274;51.992;8.518;2024-03-06T12:31:03;54.13;;;42.22;;
10452;SDS011;5274;51.992;8.518;2024-03-06T12:33:29;55.28;;;40.95;;
10452;SDS011;5274;51.992;8.518;2024-03-06T12:36:02;55.20;;;42.75;;
10452;SDS011;5274;51.992;8.518;2024-03-06T12:38:29;54.28;;;41.03;;
10452;SDS011;5274;51.992;8.518;2024-03-06T12:40:55;55.97;;;40.90;;
10452;SDS011;5274;51.992;8.518;2024-03-06T12:43:21;53.22;;;39.45;;
10452;SDS011;5274;51.992;8.518;2024-03-06T12:45:46;49.20;;;38.63;;
10452;SDS011;5274;51.992;8.518;2024-03-06T12:48:12;48.83;;;38.10;;
10452;SDS011;5274;51.992;8.518;2024-03-06T12:50:38;45.40;;;37.83;;
10452;SDS011;5274;51.992;8.518;2024-03-06T12:53:03;48.15;;;38.72;;
10452;SDS011;5274;51.992;8.518;2024-03-06T12:55:29;47.13;;;39.50;;
10452;SDS011;5274;51.992;8.518;2024-03-06T12:57:56;50.65;;;39.53;;
10452;SDS011;5274;51.992;8.518;2024-03-06T13:00:22;52.35;;;40.35;;
10452;SDS011;5274;51.992;8.518;2024-03-06T13:02:49;47.27;;;38.70;;
10452;SDS011;5274;51.992;8.518;2024-03-06T13:05:18;47.95;;;38.75;;
10452;SDS011;5274;51.992;8.518;2024-03-06T13:07:44;48.80;;;38.45;;
10452;SDS011;5274;51.992;8.518;2024-03-06T13:10:10;49.65;;;38.15;;
10452;SDS011;5274;51.992;8.518;2024-03-06T13:12:37;48.75;;;39.53;;
10452;SDS011;5274;51.992;8.518;2024-03-06T13:15:03;48.67;;;39.58;;
10452;SDS011;5274;51.992;8.518;2024-03-06T13:17:29;49.13;;;40.17;;
10452;SDS011;5274;51.992;8.518;2024-03-06T13:19:55;48.70;;;40.27;;
10452;SDS011;5274;51.992;8.518;2024-03-06T13:22:21;50.80;;;40.47;;
10452;SDS011;5274;51.992;8.518;2024-03-06T13:24:47;49.10;;;40.67;;
10452;SDS011;5274;51.992;8.518;2024-03-06T13:27:13;52.38;;;40.80;;
10452;SDS011;5274;51.992;8.518;2024-03-06T13:29:39;51.17;;;39.13;;
10452;SDS011;5274;51.992;8.518;2024-03-06T13:32:05;50.08;;;39.33;;
10452;SDS011;5274;51.992;8.518;2024-03-06T13:34:32;48.47;;;38.38;;
10452;SDS011;5274;51.992;8.518;2024-03-06T13:36:58;52.77;;;40.97;;
10452;SDS011;5274;51.992;8.518;2024-03-06T13:39:23;50.28;;;40.28;;
10452;SDS011;5274;51.992;8.518;2024-03-06T13:41:49;50.25;;;39.50;;
10452;SDS011;5274;51.992;8.518;2024-03-06T13:44:15;51.20;;;39.33;;
10452;SDS011;5274;51.992;8.518;2024-03-06T13:46:40;49.93;;;39.17;;
10452;SDS011;5274;51.992;8.518;2024-03-06T13:49:06;47.72;;;39.63;;
10452;SDS011;5274;51.992;8.518;2024-03-06T13:51:31;48.67;;;38.53;;
10452;SDS011;5274;51.992;8.518;2024-03-06T13:53:57;47.07;;;38.27;;
10452;SDS011;5274;51.992;8.518;2024-03-06T13:56:22;45.13;;;38.20;;
10452;SDS011;5274;51.992;8.518;2024-03-06T13:58:48;47.03;;;38.90;;
10452;SDS011;5274;51.992;8.518;2024-03-06T14:01:13;47.07;;;38.77;;
10452;SDS011;5274;51.992;8.518;2024-03-06T14:03:39;48.90;;;39.17;;
10452;SDS011;5274;51.992;8.518;2024-03-06T14:06:04;47.17;;;39.10;;
10452;SDS011;5274;51.992;8.518;2024-03-06T14:08:32;47.55;;;38.33;;
10452;SDS011;5274;51.992;8.518;2024-03-06T14:10:57;49.88;;;38.78;;
10452;SDS011;5274;51.992;8.518;2024-03-06T14:13:23;48.57;;;39.03;;
10452;SDS011;5274;51.992;8.518;2024-03-06T14:15:49;53.97;;;41.05;;
10452;SDS011;5274;51.992;8.518;2024-03-06T14:18:14;52.80;;;40.43;;
10452;SDS011;5274;51.992;8.518;2024-03-06T14:20:40;54.10;;;40.77;;
10452;SDS011;5274;51.992;8.518;2024-03-06T14:23:05;53.95;;;41.05;;
10452;SDS011;5274;51.992;8.518;2024-03-06T14:25:32;53.42;;;40.95;;
10452;SDS011;5274;51.992;8.518;2024-03-06T14:28:00;52.20;;;40.75;;
10452;SDS011;5274;51.992;8.518;2024-03-06T14:30:26;50.47;;;39.90;;
10452;SDS011;5274;51.992;8.518;2024-03-06T14:32:52;51.70;;;40.13;;
10452;SDS011;5274;51.992;8.518;2024-03-06T14:35:17;53.53;;;42.17;;
10452;SDS011;5274;51.992;8.518;2024-03-06T14:37:43;51.37;;;40.97;;
10452;SDS011;5274;51.992;8.518;2024-03-06T14:40:09;56.63;;;40.85;;
10452;SDS011;5274;51.992;8.518;2024-03-06T14:42:35;52.72;;;40.80;;
10452;SDS011;5274;51.992;8.518;2024-03-06T14:45:01;50.58;;;40.13;;
10452;SDS011;5274;51.992;8.518;2024-03-06T14:47:29;51.20;;;40.33;;